SWA561 LPPT-GMMN
Flight info
| Callsign | SWA561 |
|---|---|
| Flight time | 1h 13m |
| Altitude | 34000 |
| Route | DUZOP1X DUZOP DCT AMSEL UR722 LAKAM LAKAM3A |
| Aircraft | B738/M-SDE2E3FGHIRWXY/LB1 |
Departure
| Time | 2026-05-07 19:49 |
|---|---|
| Airport | Lisbon Humberto Delgado Airport (LPPT) |
Arrival
| Time | 2026-05-07 21:03 |
|---|---|
| Airport | Mohammed V International Airport (GMMN) |
| Time | Latitude | Longitude | Altitude | Speed | Heading |
|---|---|---|---|---|---|
| 2026-05-07 19:21 | 38.77609 | -9.13196 | 346 ft | 0 kts | 78° |
| 2026-05-07 19:38 | 38.77606 | -9.13212 | 355 ft | 2 kts | 78° |
| 2026-05-07 19:38 | 38.77603 | -9.13233 | 349 ft | 2 kts | 78° |
| 2026-05-07 19:39 | 38.77599 | -9.13255 | 352 ft | 2 kts | 78° |
| 2026-05-07 19:39 | 38.77596 | -9.13276 | 353 ft | 2 kts | 78° |
| 2026-05-07 19:39 | 38.77593 | -9.13298 | 357 ft | 2 kts | 78° |
| 2026-05-07 19:39 | 38.77591 | -9.13304 | 357 ft | 0 kts | 78° |
| 2026-05-07 19:40 | 38.77591 | -9.13303 | 357 ft | 3 kts | 91° |
| 2026-05-07 19:40 | 38.77574 | -9.13292 | 352 ft | 0 kts | 183° |
| 2026-05-07 19:44 | 38.77489 | -9.13289 | 351 ft | 13 kts | 161° |
| 2026-05-07 19:44 | 38.77405 | -9.13280 | 346 ft | 12 kts | 168° |
| 2026-05-07 19:44 | 38.77340 | -9.13293 | 350 ft | 8 kts | 236° |
| 2026-05-07 19:45 | 38.77307 | -9.13413 | 346 ft | 23 kts | 256° |
| 2026-05-07 19:45 | 38.77267 | -9.13646 | 349 ft | 27 kts | 257° |
| 2026-05-07 19:45 | 38.77243 | -9.13797 | 348 ft | 13 kts | 255° |
| 2026-05-07 19:45 | 38.77179 | -9.13863 | 350 ft | 12 kts | 202° |
| 2026-05-07 19:46 | 38.77103 | -9.13909 | 348 ft | 12 kts | 206° |
| 2026-05-07 19:46 | 38.77020 | -9.13956 | 349 ft | 20 kts | 202° |
| 2026-05-07 19:46 | 38.76840 | -9.14052 | 351 ft | 30 kts | 202° |
| 2026-05-07 19:46 | 38.76709 | -9.14123 | 347 ft | 18 kts | 202° |
| 2026-05-07 19:47 | 38.76597 | -9.14182 | 352 ft | 17 kts | 202° |
| 2026-05-07 19:47 | 38.76529 | -9.14270 | 347 ft | 13 kts | 276° |
| 2026-05-07 19:47 | 38.76568 | -9.14381 | 335 ft | 14 kts | 313° |
| 2026-05-07 19:47 | 38.76640 | -9.14387 | 336 ft | 11 kts | 22° |
| 2026-05-07 19:48 | 38.76643 | -9.14386 | 336 ft | 0 kts | 22° |
| 2026-05-07 19:49 | 38.76785 | -9.14312 | 350 ft | 59 kts | 22° |
| 2026-05-07 19:49 | 38.77403 | -9.13986 | 352 ft | 131 kts | 22° |
| 2026-05-07 19:49 | 38.78429 | -9.13466 | 482 ft | 175 kts | 16° |
| 2026-05-07 19:49 | 38.79592 | -9.12991 | 1185 ft | 181 kts | 13° |
| 2026-05-07 19:50 | 38.80758 | -9.12432 | 2216 ft | 176 kts | 23° |
| 2026-05-07 19:50 | 38.81815 | -9.11633 | 3114 ft | 179 kts | 28° |
| 2026-05-07 19:50 | 38.82873 | -9.10689 | 3846 ft | 190 kts | 34° |
| 2026-05-07 19:50 | 38.83970 | -9.09607 | 4444 ft | 210 kts | 33° |
| 2026-05-07 19:51 | 38.85287 | -9.08539 | 4692 ft | 237 kts | 36° |
| 2026-05-07 19:51 | 38.86402 | -9.06859 | 5077 ft | 260 kts | 59° |
| 2026-05-07 19:51 | 38.87125 | -9.04656 | 5596 ft | 276 kts | 77° |
| 2026-05-07 19:51 | 38.87618 | -9.02246 | 6459 ft | 280 kts | 84° |
| 2026-05-07 19:52 | 38.87402 | -8.99816 | 7309 ft | 274 kts | 116° |
| 2026-05-07 19:52 | 38.86358 | -8.97816 | 8210 ft | 270 kts | 143° |
| 2026-05-07 19:52 | 38.84682 | -8.96834 | 9131 ft | 266 kts | 170° |
| 2026-05-07 19:52 | 38.82836 | -8.96714 | 9970 ft | 268 kts | 187° |
| 2026-05-07 19:53 | 38.80989 | -8.97345 | 10495 ft | 284 kts | 200° |
| 2026-05-07 19:53 | 38.79118 | -8.98325 | 11094 ft | 294 kts | 202° |
| 2026-05-07 19:53 | 38.77246 | -8.99368 | 11891 ft | 298 kts | 202° |
| 2026-05-07 19:53 | 38.75333 | -9.00438 | 12756 ft | 300 kts | 202° |
| 2026-05-07 19:54 | 38.73410 | -9.01503 | 13601 ft | 303 kts | 202° |
| 2026-05-07 19:54 | 38.71463 | -9.02568 | 14354 ft | 305 kts | 202° |
| 2026-05-07 19:54 | 38.69494 | -9.03637 | 15084 ft | 309 kts | 202° |
| 2026-05-07 19:54 | 38.67457 | -9.04387 | 15802 ft | 312 kts | 186° |
| 2026-05-07 19:55 | 38.65265 | -9.04247 | 16522 ft | 319 kts | 171° |
| 2026-05-07 19:55 | 38.63096 | -9.03514 | 17189 ft | 325 kts | 166° |
| 2026-05-07 19:55 | 38.60923 | -9.02639 | 17889 ft | 330 kts | 166° |
| 2026-05-07 19:55 | 38.58724 | -9.01720 | 18486 ft | 335 kts | 166° |
| 2026-05-07 19:56 | 38.56490 | -9.00786 | 19086 ft | 339 kts | 166° |
| 2026-05-07 19:56 | 38.54242 | -8.99853 | 19718 ft | 341 kts | 166° |
| 2026-05-07 19:56 | 38.51973 | -8.98922 | 20333 ft | 344 kts | 166° |
| 2026-05-07 19:56 | 38.49703 | -8.97998 | 20931 ft | 347 kts | 166° |
| 2026-05-07 19:57 | 38.47389 | -8.97063 | 21522 ft | 350 kts | 166° |
| 2026-05-07 19:57 | 38.45055 | -8.96123 | 22125 ft | 353 kts | 166° |
| 2026-05-07 19:57 | 38.42698 | -8.95177 | 22720 ft | 356 kts | 166° |
| 2026-05-07 19:57 | 38.40315 | -8.94222 | 23293 ft | 360 kts | 166° |
| 2026-05-07 19:58 | 38.37912 | -8.93261 | 23783 ft | 363 kts | 166° |
| 2026-05-07 19:58 | 38.35492 | -8.92294 | 24292 ft | 365 kts | 166° |
| 2026-05-07 19:58 | 38.33063 | -8.91324 | 24773 ft | 367 kts | 167° |
| 2026-05-07 19:58 | 38.30622 | -8.90350 | 25261 ft | 369 kts | 167° |
| 2026-05-07 19:59 | 38.28192 | -8.89381 | 25720 ft | 371 kts | 167° |
| 2026-05-07 19:59 | 38.25719 | -8.88396 | 26173 ft | 374 kts | 167° |
| 2026-05-07 19:59 | 38.23221 | -8.87402 | 26601 ft | 377 kts | 167° |
| 2026-05-07 19:59 | 38.20705 | -8.86401 | 26986 ft | 381 kts | 167° |
| 2026-05-07 20:00 | 38.18164 | -8.85392 | 27418 ft | 383 kts | 167° |
| 2026-05-07 20:00 | 38.15618 | -8.84380 | 27902 ft | 384 kts | 167° |
| 2026-05-07 20:00 | 38.13060 | -8.83364 | 28368 ft | 386 kts | 167° |
| 2026-05-07 20:00 | 38.10486 | -8.82342 | 28764 ft | 388 kts | 168° |
| 2026-05-07 20:01 | 38.07897 | -8.81317 | 29157 ft | 391 kts | 168° |
| 2026-05-07 20:01 | 38.05292 | -8.80285 | 29569 ft | 393 kts | 168° |
| 2026-05-07 20:01 | 38.02674 | -8.79249 | 29987 ft | 395 kts | 168° |
| 2026-05-07 20:01 | 38.00045 | -8.78209 | 30332 ft | 396 kts | 168° |
| 2026-05-07 20:02 | 37.97437 | -8.77178 | 30678 ft | 398 kts | 168° |
| 2026-05-07 20:02 | 37.94798 | -8.76136 | 31024 ft | 398 kts | 168° |
| 2026-05-07 20:02 | 37.92141 | -8.75087 | 31372 ft | 400 kts | 169° |
| 2026-05-07 20:02 | 37.89476 | -8.74036 | 31689 ft | 401 kts | 169° |
| 2026-05-07 20:03 | 37.86800 | -8.72981 | 32000 ft | 403 kts | 169° |
| 2026-05-07 20:03 | 37.84118 | -8.71926 | 32314 ft | 404 kts | 169° |
| 2026-05-07 20:03 | 37.81428 | -8.70867 | 32592 ft | 406 kts | 169° |
| 2026-05-07 20:03 | 37.78719 | -8.69803 | 32843 ft | 408 kts | 169° |
| 2026-05-07 20:04 | 37.76030 | -8.68746 | 33075 ft | 411 kts | 170° |
| 2026-05-07 20:04 | 37.73299 | -8.67672 | 33424 ft | 410 kts | 170° |
| 2026-05-07 20:04 | 37.70581 | -8.66603 | 33853 ft | 407 kts | 170° |
| 2026-05-07 20:04 | 37.67864 | -8.65540 | 33924 ft | 411 kts | 170° |
| 2026-05-07 20:05 | 37.62437 | -8.63222 | 33953 ft | 410 kts | 167° |
| 2026-05-07 20:05 | 37.57113 | -8.60711 | 33946 ft | 407 kts | 167° |
| 2026-05-07 20:06 | 37.51820 | -8.58221 | 33949 ft | 405 kts | 167° |
| 2026-05-07 20:06 | 37.46530 | -8.55768 | 33939 ft | 404 kts | 167° |
| 2026-05-07 20:07 | 37.41274 | -8.53351 | 33950 ft | 405 kts | 167° |
| 2026-05-07 20:07 | 37.35969 | -8.50919 | 33954 ft | 406 kts | 167° |
| 2026-05-07 20:08 | 37.30631 | -8.48475 | 33952 ft | 408 kts | 167° |
| 2026-05-07 20:08 | 37.25301 | -8.46039 | 33949 ft | 411 kts | 167° |
| 2026-05-07 20:09 | 37.19911 | -8.43578 | 33939 ft | 413 kts | 167° |
| 2026-05-07 20:10 | 37.11782 | -8.39873 | 33938 ft | 415 kts | 167° |
| 2026-05-07 20:10 | 37.06334 | -8.37393 | 33936 ft | 416 kts | 167° |
| 2026-05-07 20:11 | 37.00914 | -8.34930 | 33934 ft | 416 kts | 167° |
| 2026-05-07 20:11 | 36.95472 | -8.32461 | 33933 ft | 416 kts | 167° |
| 2026-05-07 20:12 | 36.90045 | -8.30003 | 33925 ft | 414 kts | 167° |
| 2026-05-07 20:12 | 36.84626 | -8.27552 | 33930 ft | 413 kts | 167° |
| 2026-05-07 20:13 | 36.79223 | -8.25113 | 33926 ft | 412 kts | 168° |
| 2026-05-07 20:13 | 36.73837 | -8.22684 | 33940 ft | 411 kts | 168° |
| 2026-05-07 20:14 | 36.68496 | -8.20281 | 33936 ft | 410 kts | 168° |
| 2026-05-07 20:14 | 36.63127 | -8.17868 | 33943 ft | 410 kts | 168° |
| 2026-05-07 20:15 | 36.57753 | -8.15457 | 33941 ft | 410 kts | 168° |
| 2026-05-07 20:15 | 36.52408 | -8.13062 | 33943 ft | 410 kts | 168° |
| 2026-05-07 20:16 | 36.47031 | -8.10656 | 33943 ft | 411 kts | 168° |
| 2026-05-07 20:16 | 36.41639 | -8.08247 | 33941 ft | 412 kts | 168° |
| 2026-05-07 20:17 | 36.36230 | -8.05834 | 33941 ft | 413 kts | 168° |
| 2026-05-07 20:17 | 36.30820 | -8.03423 | 33951 ft | 413 kts | 168° |
| 2026-05-07 20:18 | 36.25403 | -8.01013 | 33945 ft | 414 kts | 168° |
| 2026-05-07 20:18 | 36.20008 | -7.98617 | 33948 ft | 414 kts | 168° |
| 2026-05-07 20:19 | 36.14568 | -7.96204 | 33949 ft | 415 kts | 168° |
| 2026-05-07 20:19 | 36.09128 | -7.93794 | 33950 ft | 415 kts | 168° |
| 2026-05-07 20:20 | 36.03714 | -7.91398 | 33950 ft | 415 kts | 168° |
| 2026-05-07 20:20 | 35.98273 | -7.89012 | 33952 ft | 413 kts | 170° |
| 2026-05-07 20:21 | 35.92725 | -7.87840 | 33960 ft | 400 kts | 182° |
| 2026-05-07 20:21 | 35.87203 | -7.87389 | 33957 ft | 399 kts | 183° |
| 2026-05-07 20:22 | 35.81649 | -7.86923 | 33954 ft | 400 kts | 182° |
| 2026-05-07 20:22 | 35.76081 | -7.86429 | 33956 ft | 400 kts | 182° |
| 2026-05-07 20:23 | 35.70566 | -7.85931 | 33955 ft | 400 kts | 182° |
| 2026-05-07 20:23 | 35.65011 | -7.85428 | 33962 ft | 400 kts | 182° |
| 2026-05-07 20:24 | 35.59455 | -7.84926 | 33963 ft | 400 kts | 182° |
| 2026-05-07 20:24 | 35.53895 | -7.84425 | 33958 ft | 400 kts | 182° |
| 2026-05-07 20:25 | 35.48337 | -7.83924 | 33961 ft | 400 kts | 182° |
| 2026-05-07 20:25 | 35.43711 | -7.83508 | 33963 ft | 400 kts | 182° |
| 2026-05-07 20:26 | 35.37247 | -7.82943 | 33964 ft | 400 kts | 183° |
| 2026-05-07 20:26 | 35.32625 | -7.82559 | 33966 ft | 400 kts | 183° |
| 2026-05-07 20:27 | 35.27061 | -7.82097 | 33961 ft | 400 kts | 183° |
| 2026-05-07 20:27 | 35.21497 | -7.81633 | 33965 ft | 400 kts | 183° |
| 2026-05-07 20:28 | 35.15935 | -7.81169 | 33966 ft | 400 kts | 183° |
| 2026-05-07 20:28 | 35.10368 | -7.80704 | 33969 ft | 401 kts | 183° |
| 2026-05-07 20:29 | 35.04836 | -7.80243 | 33969 ft | 401 kts | 183° |
| 2026-05-07 20:29 | 34.99255 | -7.79778 | 33969 ft | 401 kts | 183° |
| 2026-05-07 20:30 | 34.93674 | -7.79315 | 33970 ft | 402 kts | 183° |
| 2026-05-07 20:30 | 34.88084 | -7.78851 | 33969 ft | 402 kts | 183° |
| 2026-05-07 20:31 | 34.82531 | -7.78390 | 33978 ft | 402 kts | 183° |
| 2026-05-07 20:31 | 34.76939 | -7.77927 | 33970 ft | 403 kts | 183° |
| 2026-05-07 20:32 | 34.71346 | -7.77481 | 33973 ft | 402 kts | 184° |
| 2026-05-07 20:32 | 34.65728 | -7.77091 | 33605 ft | 406 kts | 184° |
| 2026-05-07 20:32 | 34.62913 | -7.76898 | 33191 ft | 406 kts | 184° |
| 2026-05-07 20:33 | 34.60102 | -7.76702 | 32524 ft | 405 kts | 184° |
| 2026-05-07 20:33 | 34.57312 | -7.76505 | 31897 ft | 397 kts | 184° |
| 2026-05-07 20:33 | 34.54603 | -7.76311 | 31275 ft | 391 kts | 184° |
| 2026-05-07 20:33 | 34.51908 | -7.76119 | 30662 ft | 384 kts | 184° |
| 2026-05-07 20:34 | 34.49244 | -7.75932 | 30071 ft | 385 kts | 184° |
| 2026-05-07 20:34 | 34.46536 | -7.75748 | 29408 ft | 389 kts | 184° |
| 2026-05-07 20:34 | 34.43853 | -7.75560 | 28715 ft | 382 kts | 183° |
| 2026-05-07 20:34 | 34.41211 | -7.75371 | 28051 ft | 377 kts | 183° |
| 2026-05-07 20:35 | 34.38605 | -7.75188 | 27413 ft | 376 kts | 183° |
| 2026-05-07 20:35 | 34.35987 | -7.75007 | 26789 ft | 377 kts | 183° |
| 2026-05-07 20:35 | 34.33364 | -7.74825 | 26173 ft | 378 kts | 183° |
| 2026-05-07 20:35 | 34.30774 | -7.74645 | 25584 ft | 379 kts | 183° |
| 2026-05-07 20:36 | 34.28133 | -7.74461 | 24994 ft | 379 kts | 183° |
| 2026-05-07 20:36 | 34.25500 | -7.74276 | 24414 ft | 379 kts | 183° |
| 2026-05-07 20:36 | 34.22876 | -7.74092 | 23844 ft | 376 kts | 183° |
| 2026-05-07 20:36 | 34.20293 | -7.73908 | 23216 ft | 368 kts | 182° |
| 2026-05-07 20:37 | 34.17764 | -7.73724 | 22576 ft | 360 kts | 182° |
| 2026-05-07 20:37 | 34.15300 | -7.73506 | 22034 ft | 350 kts | 181° |
| 2026-05-07 20:37 | 34.12894 | -7.73280 | 21486 ft | 342 kts | 181° |
| 2026-05-07 20:37 | 34.10549 | -7.73059 | 20950 ft | 335 kts | 181° |
| 2026-05-07 20:38 | 34.08242 | -7.72844 | 20434 ft | 329 kts | 181° |
| 2026-05-07 20:38 | 34.05980 | -7.72638 | 19919 ft | 324 kts | 181° |
| 2026-05-07 20:38 | 34.03746 | -7.72435 | 19423 ft | 320 kts | 181° |
| 2026-05-07 20:38 | 34.01535 | -7.72235 | 18922 ft | 317 kts | 181° |
| 2026-05-07 20:39 | 33.99344 | -7.72037 | 18445 ft | 315 kts | 181° |
| 2026-05-07 20:39 | 33.97168 | -7.71823 | 17899 ft | 309 kts | 188° |
| 2026-05-07 20:39 | 33.95103 | -7.72238 | 17384 ft | 302 kts | 197° |
| 2026-05-07 20:39 | 33.93076 | -7.72874 | 16840 ft | 300 kts | 199° |
| 2026-05-07 20:40 | 33.91071 | -7.73549 | 16303 ft | 298 kts | 199° |
| 2026-05-07 20:40 | 33.89093 | -7.74228 | 15783 ft | 294 kts | 199° |
| 2026-05-07 20:40 | 33.87139 | -7.74906 | 15269 ft | 290 kts | 199° |
| 2026-05-07 20:40 | 33.85207 | -7.75583 | 14762 ft | 286 kts | 199° |
| 2026-05-07 20:41 | 33.83322 | -7.76251 | 14280 ft | 283 kts | 199° |
| 2026-05-07 20:41 | 33.81439 | -7.76925 | 13788 ft | 280 kts | 199° |
| 2026-05-07 20:41 | 33.79578 | -7.77597 | 13246 ft | 278 kts | 199° |
| 2026-05-07 20:41 | 33.77735 | -7.78264 | 12721 ft | 275 kts | 199° |
| 2026-05-07 20:42 | 33.75916 | -7.78923 | 12239 ft | 271 kts | 199° |
| 2026-05-07 20:42 | 33.74121 | -7.79573 | 11763 ft | 268 kts | 199° |
| 2026-05-07 20:42 | 33.72343 | -7.80216 | 11293 ft | 265 kts | 199° |
| 2026-05-07 20:42 | 33.70588 | -7.80849 | 10831 ft | 262 kts | 199° |
| 2026-05-07 20:43 | 33.68845 | -7.81477 | 10377 ft | 260 kts | 199° |
| 2026-05-07 20:43 | 33.67141 | -7.82092 | 9932 ft | 258 kts | 199° |
| 2026-05-07 20:43 | 33.65429 | -7.82709 | 9501 ft | 254 kts | 199° |
| 2026-05-07 20:43 | 33.63750 | -7.83318 | 9106 ft | 250 kts | 199° |
| 2026-05-07 20:44 | 33.62102 | -7.83919 | 8714 ft | 246 kts | 199° |
| 2026-05-07 20:44 | 33.60479 | -7.84515 | 8357 ft | 241 kts | 199° |
| 2026-05-07 20:44 | 33.58890 | -7.85103 | 8027 ft | 236 kts | 199° |
| 2026-05-07 20:44 | 33.57336 | -7.85683 | 7694 ft | 233 kts | 199° |
| 2026-05-07 20:45 | 33.55806 | -7.86262 | 7386 ft | 234 kts | 199° |
| 2026-05-07 20:45 | 33.54249 | -7.86857 | 7079 ft | 235 kts | 199° |
| 2026-05-07 20:45 | 33.52715 | -7.87451 | 6998 ft | 227 kts | 199° |
| 2026-05-07 20:45 | 33.51233 | -7.88024 | 6969 ft | 215 kts | 199° |
| 2026-05-07 20:46 | 33.49851 | -7.88558 | 6961 ft | 209 kts | 199° |
| 2026-05-07 20:46 | 33.48471 | -7.89090 | 6972 ft | 208 kts | 199° |
| 2026-05-07 20:46 | 33.47085 | -7.89626 | 6973 ft | 210 kts | 199° |
| 2026-05-07 20:46 | 33.45688 | -7.90167 | 6981 ft | 211 kts | 199° |
| 2026-05-07 20:47 | 33.44287 | -7.90711 | 6975 ft | 212 kts | 199° |
| 2026-05-07 20:47 | 33.42877 | -7.91258 | 6982 ft | 213 kts | 199° |
| 2026-05-07 20:47 | 33.41465 | -7.91804 | 6980 ft | 213 kts | 199° |
| 2026-05-07 20:47 | 33.40069 | -7.92344 | 6977 ft | 213 kts | 199° |
| 2026-05-07 20:48 | 33.38660 | -7.92888 | 6974 ft | 213 kts | 199° |
| 2026-05-07 20:48 | 33.37250 | -7.93434 | 6978 ft | 212 kts | 199° |
| 2026-05-07 20:48 | 33.35848 | -7.93975 | 6967 ft | 211 kts | 199° |
| 2026-05-07 20:48 | 33.34449 | -7.94513 | 6968 ft | 210 kts | 199° |
| 2026-05-07 20:49 | 33.33059 | -7.95049 | 6975 ft | 209 kts | 199° |
| 2026-05-07 20:49 | 33.31642 | -7.95409 | 6946 ft | 210 kts | 178° |
| 2026-05-07 20:49 | 33.30302 | -7.94825 | 6977 ft | 214 kts | 146° |
| 2026-05-07 20:49 | 33.29167 | -7.93625 | 6988 ft | 221 kts | 140° |
| 2026-05-07 20:50 | 33.28059 | -7.92345 | 6979 ft | 221 kts | 140° |
| 2026-05-07 20:50 | 33.26959 | -7.91060 | 6973 ft | 220 kts | 139° |
| 2026-05-07 20:50 | 33.25871 | -7.89786 | 6964 ft | 219 kts | 139° |
| 2026-05-07 20:50 | 33.24789 | -7.88516 | 6973 ft | 218 kts | 139° |
| 2026-05-07 20:51 | 33.23711 | -7.87247 | 6968 ft | 217 kts | 139° |
| 2026-05-07 20:51 | 33.22637 | -7.85981 | 6967 ft | 217 kts | 139° |
| 2026-05-07 20:51 | 33.21560 | -7.84713 | 6974 ft | 217 kts | 139° |
| 2026-05-07 20:51 | 33.20480 | -7.83443 | 6975 ft | 218 kts | 139° |
| 2026-05-07 20:52 | 33.19405 | -7.82179 | 6978 ft | 219 kts | 139° |
| 2026-05-07 20:52 | 33.18315 | -7.80898 | 6972 ft | 220 kts | 139° |
| 2026-05-07 20:52 | 33.17223 | -7.79615 | 6978 ft | 221 kts | 139° |
| 2026-05-07 20:52 | 33.16120 | -7.78320 | 6979 ft | 222 kts | 139° |
| 2026-05-07 20:53 | 33.15018 | -7.77027 | 6979 ft | 223 kts | 139° |
| 2026-05-07 20:53 | 33.13923 | -7.75745 | 6971 ft | 223 kts | 139° |
| 2026-05-07 20:53 | 33.12799 | -7.74433 | 6762 ft | 231 kts | 139° |
| 2026-05-07 20:53 | 33.11630 | -7.73086 | 6436 ft | 235 kts | 139° |
| 2026-05-07 20:54 | 33.10438 | -7.71730 | 6077 ft | 236 kts | 139° |
| 2026-05-07 20:54 | 33.09251 | -7.70391 | 5712 ft | 233 kts | 139° |
| 2026-05-07 20:54 | 33.08069 | -7.69076 | 5353 ft | 231 kts | 139° |
| 2026-05-07 20:54 | 33.06936 | -7.67719 | 4984 ft | 230 kts | 123° |
| 2026-05-07 20:55 | 33.06438 | -7.65968 | 4631 ft | 227 kts | 90° |
| 2026-05-07 20:55 | 33.06589 | -7.64121 | 4311 ft | 223 kts | 80° |
| 2026-05-07 20:55 | 33.06829 | -7.62309 | 4046 ft | 217 kts | 79° |
| 2026-05-07 20:55 | 33.07055 | -7.60577 | 4011 ft | 206 kts | 79° |
| 2026-05-07 20:56 | 33.07382 | -7.58979 | 3982 ft | 191 kts | 58° |
| 2026-05-07 20:56 | 33.08284 | -7.57937 | 4022 ft | 179 kts | 30° |
| 2026-05-07 20:56 | 33.09392 | -7.57250 | 4018 ft | 179 kts | 26° |
| 2026-05-07 20:56 | 33.10512 | -7.56597 | 4026 ft | 177 kts | 26° |
| 2026-05-07 20:57 | 33.11611 | -7.55954 | 4029 ft | 174 kts | 26° |
| 2026-05-07 20:57 | 33.12706 | -7.55307 | 3907 ft | 178 kts | 26° |
| 2026-05-07 20:57 | 33.13807 | -7.54652 | 3717 ft | 178 kts | 26° |
| 2026-05-07 20:57 | 33.14900 | -7.53999 | 3635 ft | 173 kts | 26° |
| 2026-05-07 20:58 | 33.15975 | -7.53356 | 3605 ft | 170 kts | 26° |
| 2026-05-07 20:58 | 33.17078 | -7.52927 | 3589 ft | 166 kts | 356° |
| 2026-05-07 20:58 | 33.18216 | -7.53209 | 3629 ft | 170 kts | 353° |
| 2026-05-07 20:58 | 33.19367 | -7.53367 | 3598 ft | 161 kts | 352° |
| 2026-05-07 20:59 | 33.20417 | -7.53632 | 3583 ft | 154 kts | 348° |
| 2026-05-07 20:59 | 33.21454 | -7.53959 | 3435 ft | 154 kts | 347° |
| 2026-05-07 20:59 | 33.22486 | -7.54305 | 3240 ft | 153 kts | 346° |
| 2026-05-07 20:59 | 33.23487 | -7.54647 | 3064 ft | 147 kts | 347° |
| 2026-05-07 21:00 | 33.24474 | -7.54986 | 2859 ft | 148 kts | 347° |
| 2026-05-07 21:00 | 33.25481 | -7.55332 | 2650 ft | 151 kts | 347° |
| 2026-05-07 21:00 | 33.26473 | -7.55675 | 2455 ft | 146 kts | 347° |
| 2026-05-07 21:00 | 33.27446 | -7.56009 | 2237 ft | 146 kts | 347° |
| 2026-05-07 21:01 | 33.28412 | -7.56342 | 2054 ft | 147 kts | 347° |
| 2026-05-07 21:01 | 33.29392 | -7.56679 | 1854 ft | 146 kts | 347° |
| 2026-05-07 21:01 | 33.30367 | -7.57015 | 1643 ft | 144 kts | 347° |
| 2026-05-07 21:01 | 33.31322 | -7.57343 | 1449 ft | 143 kts | 346° |
| 2026-05-07 21:02 | 33.32291 | -7.57676 | 1265 ft | 146 kts | 347° |
| 2026-05-07 21:02 | 33.33270 | -7.58015 | 1079 ft | 146 kts | 346° |
| 2026-05-07 21:02 | 33.34242 | -7.58349 | 873 ft | 144 kts | 346° |
| 2026-05-07 21:02 | 33.35194 | -7.58677 | 682 ft | 142 kts | 347° |
| 2026-05-07 21:03 | 33.36132 | -7.58999 | 650 ft | 138 kts | 346° |
| 2026-05-07 21:03 | 33.36879 | -7.59253 | 650 ft | 62 kts | 343° |
| 2026-05-07 21:03 | 33.37126 | -7.59338 | 651 ft | 17 kts | 344° |
| 2026-05-07 21:03 | 33.37220 | -7.59374 | 652 ft | 22 kts | 342° |
| 2026-05-07 21:04 | 33.37416 | -7.59445 | 653 ft | 34 kts | 346° |
| 2026-05-07 21:04 | 33.37637 | -7.59512 | 653 ft | 32 kts | 345° |
| 2026-05-07 21:04 | 33.37742 | -7.59395 | 651 ft | 22 kts | 73° |
| 2026-05-07 21:04 | 33.37786 | -7.59218 | 645 ft | 23 kts | 73° |
| 2026-05-07 21:05 | 33.37828 | -7.59036 | 647 ft | 22 kts | 74° |
| 2026-05-07 21:05 | 33.37870 | -7.58866 | 651 ft | 16 kts | 78° |
| 2026-05-07 21:05 | 33.37850 | -7.58816 | 653 ft | 8 kts | 147° |
| 2026-05-07 21:05 | 33.37799 | -7.58789 | 652 ft | 8 kts | 158° |
| 2026-05-07 21:06 | 33.37745 | -7.58771 | 652 ft | 9 kts | 165° |
| 2026-05-07 21:06 | 33.37679 | -7.58749 | 652 ft | 10 kts | 165° |
| 2026-05-07 21:06 | 33.37614 | -7.58728 | 652 ft | 10 kts | 165° |
| 2026-05-07 21:06 | 33.37550 | -7.58705 | 653 ft | 9 kts | 161° |
| 2026-05-07 21:07 | 33.37489 | -7.58681 | 653 ft | 9 kts | 161° |
| 2026-05-07 21:07 | 33.37425 | -7.58659 | 652 ft | 11 kts | 164° |
| 2026-05-07 21:07 | 33.37350 | -7.58634 | 652 ft | 11 kts | 164° |
| 2026-05-07 21:07 | 33.37266 | -7.58605 | 652 ft | 13 kts | 164° |
| 2026-05-07 21:08 | 33.37158 | -7.58570 | 653 ft | 17 kts | 164° |
| 2026-05-07 21:08 | 33.37045 | -7.58531 | 652 ft | 17 kts | 162° |
| 2026-05-07 21:08 | 33.36937 | -7.58489 | 652 ft | 16 kts | 157° |
| 2026-05-07 21:08 | 33.36911 | -7.58394 | 652 ft | 12 kts | 77° |
| 2026-05-07 21:09 | 33.36929 | -7.58301 | 653 ft | 11 kts | 76° |
| 2026-05-07 21:09 | 33.36967 | -7.58240 | 652 ft | 8 kts | 13° |
| 2026-05-07 21:09 | 33.37023 | -7.58246 | 652 ft | 8 kts | 345° |
| 2026-05-07 21:09 | 33.37060 | -7.58229 | 654 ft | 6 kts | 44° |
| 2026-05-07 21:10 | 33.37081 | -7.58187 | 652 ft | 6 kts | 64° |
| 2026-05-07 21:10 | 33.37090 | -7.58164 | 654 ft | 0 kts | 66° |